createdAt,value
2023-05-07T00:02:42.518Z,12.30
2023-05-07T00:05:28.048Z,12.26
2023-05-07T00:08:13.514Z,12.25
2023-05-07T00:10:58.447Z,12.25
2023-05-07T00:13:43.955Z,12.25
2023-05-07T00:16:29.230Z,12.25
2023-05-07T00:19:14.642Z,12.27
2023-05-07T00:21:59.890Z,12.26
2023-05-07T00:24:45.208Z,12.26
2023-05-07T00:27:30.465Z,12.27
2023-05-07T00:30:15.828Z,12.25
2023-05-07T00:33:00.969Z,12.25
2023-05-07T00:35:46.245Z,12.24
2023-05-07T00:38:31.438Z,12.21
2023-05-07T00:41:16.878Z,12.14
2023-05-07T00:44:03.578Z,12.10
2023-05-07T00:46:50.960Z,12.07
2023-05-07T00:49:42.107Z,12.01
2023-05-07T00:52:28.777Z,11.98
2023-05-07T00:55:15.569Z,11.96
2023-05-07T00:58:01.130Z,11.95
2023-05-07T01:00:46.232Z,11.89
2023-05-07T01:03:31.601Z,11.80
2023-05-07T01:06:18.778Z,11.73
2023-05-07T01:09:05.701Z,11.67
2023-05-07T01:11:52.827Z,11.58
2023-05-07T01:14:38.352Z,11.50
2023-05-07T01:17:24.125Z,11.43
2023-05-07T01:20:11.488Z,11.35
2023-05-07T01:22:58.552Z,11.28
2023-05-07T01:25:43.759Z,11.25
2023-05-07T01:28:29.095Z,11.23
2023-05-07T01:31:15.379Z,11.21
2023-05-07T01:34:04.221Z,11.15
2023-05-07T01:36:49.910Z,11.11
2023-05-07T01:39:37.643Z,11.10
2023-05-07T01:42:23.036Z,11.11
2023-05-07T01:45:08.877Z,11.07
2023-05-07T01:47:56.343Z,11.08
2023-05-07T01:50:42.464Z,11.02
2023-05-07T01:53:29.155Z,10.95
2023-05-07T01:56:14.338Z,10.99
2023-05-07T01:58:59.606Z,11.02
2023-05-07T02:01:44.975Z,11.05
2023-05-07T02:04:30.291Z,11.10
2023-05-07T02:07:15.762Z,11.13
2023-05-07T02:10:00.895Z,11.14
2023-05-07T02:12:46.134Z,11.13
2023-05-07T02:15:31.227Z,11.16
2023-05-07T02:18:17.642Z,11.16
2023-05-07T02:21:03.007Z,11.15
2023-05-07T02:23:48.103Z,11.13
2023-05-07T02:26:33.498Z,11.16
2023-05-07T02:29:18.810Z,11.17
2023-05-07T02:32:04.181Z,11.11
2023-05-07T02:34:51.995Z,11.12
2023-05-07T02:37:37.183Z,11.12
2023-05-07T02:40:22.680Z,11.10
2023-05-07T02:43:08.179Z,11.11
2023-05-07T02:46:07.547Z,11.09
2023-05-07T02:48:53.011Z,11.10
2023-05-07T02:51:38.272Z,10.97
2023-05-07T02:54:23.513Z,10.89
2023-05-07T02:57:08.774Z,10.91
2023-05-07T02:59:54.013Z,10.96
2023-05-07T03:02:39.342Z,11.01
2023-05-07T03:05:24.660Z,11.06
2023-05-07T03:08:10.687Z,11.00
2023-05-07T03:10:56.006Z,10.98
2023-05-07T03:13:41.396Z,10.98
2023-05-07T03:16:26.948Z,10.99
2023-05-07T03:19:12.198Z,10.93
2023-05-07T03:21:57.500Z,10.98
2023-05-07T03:24:43.451Z,11.01
2023-05-07T03:27:28.841Z,11.07
2023-05-07T03:30:14.194Z,11.11
2023-05-07T03:32:59.483Z,11.14
2023-05-07T03:35:44.790Z,11.17
2023-05-07T03:38:30.006Z,11.16
2023-05-07T03:41:15.477Z,11.16
2023-05-07T03:44:00.735Z,11.16
2023-05-07T03:46:46.235Z,11.17
2023-05-07T03:49:31.490Z,11.14
2023-05-07T03:52:16.971Z,11.16
2023-05-07T03:55:02.310Z,11.15
2023-05-07T03:57:47.800Z,11.19
2023-05-07T04:00:35.104Z,11.15
2023-05-07T04:03:20.358Z,11.13
2023-05-07T04:06:05.529Z,11.11
2023-05-07T04:08:51.014Z,11.12
2023-05-07T04:11:37.033Z,11.11
2023-05-07T04:14:22.306Z,11.03
2023-05-07T04:17:08.221Z,11.09
2023-05-07T04:19:53.150Z,11.08
2023-05-07T04:22:38.571Z,11.01
2023-05-07T04:25:27.793Z,11.06
2023-05-07T04:28:13.547Z,11.15
2023-05-07T04:30:58.812Z,11.21
2023-05-07T04:33:43.856Z,11.27
2023-05-07T04:36:30.183Z,11.33
2023-05-07T04:39:15.983Z,11.37
2023-05-07T04:42:01.629Z,11.42
2023-05-07T04:44:46.751Z,11.48
2023-05-07T04:47:32.078Z,11.52
2023-05-07T04:50:18.742Z,11.54
2023-05-07T04:53:04.111Z,11.59
2023-05-07T04:55:49.335Z,11.59
2023-05-07T04:58:34.686Z,11.60
2023-05-07T05:01:20.024Z,11.57
2023-05-07T05:04:05.475Z,11.56
2023-05-07T05:06:50.752Z,11.51
2023-05-07T05:09:35.913Z,11.46
2023-05-07T05:12:21.367Z,11.46
2023-05-07T05:15:07.303Z,11.47
2023-05-07T05:17:52.837Z,11.45
2023-05-07T05:20:38.009Z,11.41
2023-05-07T05:23:23.303Z,11.30
2023-05-07T05:26:08.589Z,11.19
2023-05-07T05:28:53.745Z,11.18
2023-05-07T05:31:39.075Z,11.20
2023-05-07T05:34:24.325Z,11.16
2023-05-07T05:37:09.653Z,11.20
2023-05-07T05:39:55.826Z,11.15
2023-05-07T05:42:41.200Z,11.23
2023-05-07T05:45:26.874Z,11.25
2023-05-07T05:48:12.938Z,11.21
2023-05-07T05:50:58.208Z,11.19
2023-05-07T05:53:43.515Z,11.18
2023-05-07T05:56:28.926Z,11.17
2023-05-07T05:59:14.043Z,11.18
2023-05-07T06:01:59.447Z,11.23
2023-05-07T06:04:44.635Z,11.26
2023-05-07T06:07:29.742Z,11.27
2023-05-07T06:10:15.112Z,11.33
2023-05-07T06:13:00.468Z,11.33
2023-05-07T06:15:45.767Z,11.32
2023-05-07T06:18:31.201Z,11.32
2023-05-07T06:21:17.035Z,11.33
2023-05-07T06:24:03.322Z,11.33
2023-05-07T06:26:48.866Z,11.36
2023-05-07T06:29:34.770Z,11.39
2023-05-07T06:32:20.164Z,11.45
2023-05-07T06:35:05.799Z,11.48
2023-05-07T06:37:51.177Z,11.54
2023-05-07T06:40:36.254Z,11.58
2023-05-07T06:43:21.106Z,11.61
2023-05-07T06:46:06.426Z,11.63
2023-05-07T06:48:51.971Z,11.67
2023-05-07T06:51:37.267Z,11.60
2023-05-07T06:54:24.312Z,11.59
2023-05-07T06:57:10.001Z,11.60
2023-05-07T06:59:55.107Z,11.63
2023-05-07T07:02:40.651Z,11.60
2023-05-07T07:05:26.280Z,11.60
2023-05-07T07:08:11.725Z,11.62
2023-05-07T07:10:57.029Z,11.65
2023-05-07T07:13:43.788Z,11.71
2023-05-07T07:16:29.113Z,11.76
2023-05-07T07:19:16.237Z,11.78
2023-05-07T07:22:01.919Z,11.80
2023-05-07T07:24:47.156Z,11.76
2023-05-07T07:27:32.562Z,11.74
2023-05-07T07:30:17.809Z,11.70
2023-05-07T07:33:04.322Z,11.62
2023-05-07T07:35:49.416Z,11.58
2023-05-07T07:38:35.150Z,11.54
2023-05-07T07:41:20.649Z,11.48
2023-05-07T07:44:08.565Z,11.33
2023-05-07T07:46:53.849Z,11.31
2023-05-07T07:49:39.411Z,11.33
2023-05-07T07:52:24.644Z,11.24
2023-05-07T07:55:10.333Z,11.23
2023-05-07T07:57:55.470Z,11.16
2023-05-07T08:00:40.958Z,11.13
2023-05-07T08:03:26.312Z,11.08
2023-05-07T08:06:11.662Z,10.99
2023-05-07T08:08:56.969Z,10.94
2023-05-07T08:11:42.429Z,10.92
2023-05-07T08:14:29.308Z,10.93
2023-05-07T08:17:16.972Z,11.03
2023-05-07T08:20:02.344Z,10.98
2023-05-07T08:22:47.638Z,11.04
2023-05-07T08:25:35.086Z,11.00
2023-05-07T08:28:21.337Z,10.90
2023-05-07T08:31:06.748Z,10.83
2023-05-07T08:33:52.015Z,10.73
2023-05-07T08:36:37.293Z,10.70
2023-05-07T08:39:22.680Z,10.66
2023-05-07T08:42:10.037Z,10.70
2023-05-07T08:45:00.313Z,10.61
2023-05-07T08:47:48.103Z,10.64
2023-05-07T08:50:37.259Z,10.63
2023-05-07T08:53:22.760Z,10.56
2023-05-07T08:56:09.820Z,10.51
2023-05-07T08:58:57.706Z,10.51
2023-05-07T09:01:43.376Z,10.43
2023-05-07T09:04:28.936Z,10.36
2023-05-07T09:07:14.440Z,10.35
2023-05-07T09:10:02.214Z,10.32
2023-05-07T09:12:48.144Z,10.34
2023-05-07T09:15:33.435Z,10.32
2023-05-07T09:18:18.704Z,10.32
2023-05-07T09:21:04.096Z,10.24
2023-05-07T09:23:51.754Z,10.00
2023-05-07T09:26:36.865Z,9.85
2023-05-07T09:29:22.282Z,9.76
2023-05-07T09:32:08.909Z,9.82
2023-05-07T09:34:54.360Z,9.75
2023-05-07T09:37:39.808Z,9.66
2023-05-07T09:40:27.377Z,9.49
2023-05-07T09:43:14.759Z,9.46
2023-05-07T09:46:03.417Z,9.47
2023-05-07T09:48:49.849Z,9.54
2023-05-07T09:51:46.789Z,9.51
2023-05-07T09:54:33.948Z,9.56
2023-05-07T09:57:21.626Z,9.52
2023-05-07T10:00:10.357Z,9.40
2023-05-07T10:02:58.888Z,9.35
2023-05-07T10:05:45.617Z,9.32
2023-05-07T10:08:31.900Z,9.27
2023-05-07T10:11:17.614Z,9.33
2023-05-07T10:14:09.801Z,9.28
2023-05-07T10:16:55.532Z,9.13
2023-05-07T10:19:42.135Z,9.13
2023-05-07T10:22:28.588Z,9.07
2023-05-07T10:25:26.809Z,9.03
2023-05-07T10:28:13.334Z,9.10
2023-05-07T10:31:10.239Z,9.20
2023-05-07T10:33:57.806Z,9.23
2023-05-07T10:36:43.484Z,9.14
2023-05-07T10:39:28.844Z,9.10
2023-05-07T10:42:15.995Z,9.03
2023-05-07T10:45:14.260Z,9.08
2023-05-07T10:48:27.196Z,9.02
2023-05-07T10:51:22.952Z,9.02
2023-05-07T10:54:14.506Z,9.04
2023-05-07T10:57:38.009Z,9.02
2023-05-07T11:00:38.986Z,8.92
2023-05-07T11:03:25.987Z,8.97
2023-05-07T11:06:12.728Z,8.99
2023-05-07T11:08:59.062Z,9.06
2023-05-07T11:11:56.856Z,9.12
2023-05-07T11:14:42.351Z,9.17
2023-05-07T11:17:28.210Z,9.17
2023-05-07T11:20:13.627Z,9.16
2023-05-07T11:22:59.058Z,9.20
2023-05-07T11:25:44.806Z,9.16
2023-05-07T11:28:31.327Z,9.08
2023-05-07T11:31:22.558Z,9.12
2023-05-07T11:34:08.995Z,9.09
2023-05-07T11:36:54.673Z,9.02
2023-05-07T11:39:39.677Z,8.94
2023-05-07T11:42:31.695Z,9.02
2023-05-07T11:45:26.359Z,9.07
2023-05-07T11:48:11.511Z,9.02
2023-05-07T11:50:59.761Z,8.96
2023-05-07T11:53:46.503Z,8.90
2023-05-07T11:56:36.359Z,8.83
2023-05-07T11:59:21.658Z,8.87
2023-05-07T12:02:08.488Z,8.64
2023-05-07T12:04:55.218Z,8.59
2023-05-07T12:07:40.775Z,8.65
2023-05-07T12:10:26.458Z,8.55
2023-05-07T12:13:21.034Z,8.58
2023-05-07T12:16:07.692Z,8.56
2023-05-07T12:18:56.035Z,8.54
2023-05-07T12:21:41.975Z,8.51
2023-05-07T12:24:27.213Z,8.45
2023-05-07T12:27:12.745Z,8.50
2023-05-07T12:30:00.272Z,8.53
2023-05-07T12:32:46.678Z,8.48
2023-05-07T12:35:36.859Z,8.30
2023-05-07T12:38:22.538Z,8.28
2023-05-07T12:41:09.985Z,8.28
2023-05-07T12:43:58.734Z,8.17
2023-05-07T12:46:44.287Z,8.07
2023-05-07T12:49:29.506Z,8.08
2023-05-07T12:52:14.957Z,8.12
2023-05-07T12:55:07.695Z,8.12
2023-05-07T12:57:54.531Z,8.00
2023-05-07T13:00:39.962Z,8.09
2023-05-07T13:03:37.460Z,8.07
2023-05-07T13:06:22.910Z,8.16
2023-05-07T13:09:08.103Z,8.04
2023-05-07T13:11:53.547Z,7.96
2023-05-07T13:14:38.834Z,7.93
2023-05-07T13:17:24.229Z,7.82
2023-05-07T13:20:13.914Z,7.84
2023-05-07T13:23:02.097Z,7.78
2023-05-07T13:25:47.533Z,7.78
2023-05-07T13:28:32.710Z,7.72
2023-05-07T13:31:18.876Z,7.75
2023-05-07T13:34:04.113Z,7.87
2023-05-07T13:36:49.574Z,7.85
2023-05-07T13:39:34.996Z,7.89
2023-05-07T13:42:20.522Z,7.98
2023-05-07T13:45:06.129Z,8.12
2023-05-07T13:47:51.662Z,8.16
2023-05-07T13:50:36.935Z,8.12
2023-05-07T13:53:22.186Z,8.07
2023-05-07T13:56:07.468Z,7.98
2023-05-07T13:59:00.165Z,7.94
2023-05-07T14:01:46.078Z,7.82
2023-05-07T14:04:32.352Z,7.77
2023-05-07T14:07:17.692Z,7.59
2023-05-07T14:10:03.608Z,7.49
2023-05-07T14:12:48.976Z,7.38
2023-05-07T14:15:34.529Z,7.33
2023-05-07T14:18:19.752Z,7.12
2023-05-07T14:21:07.360Z,6.91
2023-05-07T14:23:52.934Z,6.86
2023-05-07T14:26:38.255Z,6.92
2023-05-07T14:29:24.476Z,6.98
2023-05-07T14:32:10.130Z,7.04
2023-05-07T14:34:55.101Z,7.14
2023-05-07T14:37:40.353Z,7.15
2023-05-07T14:40:25.642Z,7.05
2023-05-07T14:43:11.256Z,7.05
2023-05-07T14:45:56.312Z,6.94
2023-05-07T14:48:41.619Z,6.86
2023-05-07T14:51:29.158Z,6.74
2023-05-07T14:54:15.166Z,6.81
2023-05-07T14:57:00.905Z,6.86
2023-05-07T14:59:46.325Z,6.82
2023-05-07T15:02:31.688Z,6.78
2023-05-07T15:05:18.512Z,6.74
2023-05-07T15:08:03.972Z,6.61
2023-05-07T15:10:50.630Z,6.57
2023-05-07T15:13:35.783Z,6.63
2023-05-07T15:16:21.399Z,6.72
2023-05-07T15:19:06.997Z,6.71
2023-05-07T15:21:52.828Z,6.63
2023-05-07T15:24:40.104Z,6.56
2023-05-07T15:27:25.734Z,6.46
2023-05-07T15:30:11.876Z,6.35
2023-05-07T15:32:57.322Z,6.32
2023-05-07T15:35:42.688Z,6.29
2023-05-07T15:38:29.232Z,6.17
2023-05-07T15:41:14.660Z,6.24
2023-05-07T15:43:59.934Z,6.27
2023-05-07T15:46:45.326Z,6.30
2023-05-07T15:49:30.631Z,6.34
2023-05-07T15:52:16.848Z,6.25
2023-05-07T15:55:03.787Z,6.24
2023-05-07T15:57:49.454Z,6.29
2023-05-07T16:00:36.630Z,6.35
2023-05-07T16:03:23.004Z,6.36
2023-05-07T16:06:08.617Z,6.34
2023-05-07T16:08:55.351Z,6.36
2023-05-07T16:11:40.839Z,6.37
2023-05-07T16:14:25.975Z,6.50
2023-05-07T16:17:11.202Z,6.51
2023-05-07T16:19:59.087Z,6.28
2023-05-07T16:22:44.515Z,6.26
2023-05-07T16:25:30.485Z,6.27
2023-05-07T16:28:16.041Z,6.43
2023-05-07T16:31:19.637Z,6.54
2023-05-07T16:34:05.674Z,6.59
2023-05-07T16:36:51.050Z,6.55
2023-05-07T16:39:36.441Z,6.47
2023-05-07T16:42:21.834Z,6.38
2023-05-07T16:45:07.508Z,6.31
2023-05-07T16:47:54.011Z,6.18
2023-05-07T16:50:39.225Z,6.13
2023-05-07T16:53:24.551Z,6.17
2023-05-07T16:56:09.788Z,6.31
2023-05-07T16:58:55.667Z,6.23
2023-05-07T17:01:42.850Z,6.18
2023-05-07T17:04:29.950Z,6.23
2023-05-07T17:07:16.359Z,6.24
2023-05-07T17:10:02.445Z,6.13
2023-05-07T17:12:47.867Z,6.10
2023-05-07T17:15:32.988Z,6.22
2023-05-07T17:18:18.309Z,6.23
2023-05-07T17:21:03.532Z,6.19
2023-05-07T17:23:49.026Z,6.26
2023-05-07T17:26:36.481Z,6.20
2023-05-07T17:29:21.988Z,6.07
2023-05-07T17:32:08.556Z,6.17
2023-05-07T17:34:54.034Z,6.16
2023-05-07T17:37:39.451Z,6.23
2023-05-07T17:40:26.599Z,6.29
2023-05-07T17:43:11.985Z,6.25
2023-05-07T17:45:57.486Z,6.18
2023-05-07T17:48:42.636Z,6.11
2023-05-07T17:51:36.166Z,6.11
2023-05-07T17:54:26.272Z,6.18
2023-05-07T17:57:11.764Z,6.25
2023-05-07T17:59:58.034Z,6.20
2023-05-07T18:02:43.256Z,6.20
2023-05-07T18:05:29.492Z,6.24
2023-05-07T18:08:16.280Z,6.21
2023-05-07T18:11:03.116Z,6.24
2023-05-07T18:13:48.744Z,6.22
2023-05-07T18:16:34.887Z,6.19
2023-05-07T18:19:22.325Z,6.23
2023-05-07T18:22:07.457Z,6.19
2023-05-07T18:24:55.107Z,6.28
2023-05-07T18:27:40.561Z,6.39
2023-05-07T18:30:26.365Z,6.35
2023-05-07T18:33:11.625Z,6.33
2023-05-07T18:35:57.652Z,6.34
2023-05-07T18:38:43.065Z,6.34
2023-05-07T18:41:28.607Z,6.23
2023-05-07T18:44:14.007Z,6.13
2023-05-07T18:47:00.823Z,6.06
2023-05-07T18:49:47.410Z,6.05
2023-05-07T18:52:32.707Z,6.04
2023-05-07T18:55:20.070Z,6.02
2023-05-07T18:58:06.561Z,5.93
2023-05-07T19:00:51.799Z,6.01
2023-05-07T19:03:37.410Z,6.01
2023-05-07T19:06:22.767Z,6.09
2023-05-07T19:09:08.169Z,6.17
2023-05-07T19:11:53.959Z,6.13
2023-05-07T19:14:43.011Z,6.11
2023-05-07T19:17:28.280Z,6.05
2023-05-07T19:20:13.781Z,6.02
2023-05-07T19:22:59.044Z,6.07
2023-05-07T19:25:44.630Z,5.88
2023-05-07T19:28:30.509Z,5.80
2023-05-07T19:31:23.624Z,5.83
2023-05-07T19:34:09.205Z,5.83
2023-05-07T19:36:56.295Z,5.73
2023-05-07T19:39:41.678Z,5.78
2023-05-07T19:42:27.287Z,5.74
2023-05-07T19:45:15.459Z,5.65
2023-05-07T19:48:01.682Z,5.56
2023-05-07T19:50:49.814Z,5.57
2023-05-07T19:53:35.325Z,5.61
2023-05-07T19:56:22.321Z,5.56
2023-05-07T19:59:09.470Z,5.56
2023-05-07T20:01:55.073Z,5.66
2023-05-07T20:04:40.500Z,5.56
2023-05-07T20:07:27.142Z,5.55
2023-05-07T20:10:12.900Z,5.57
2023-05-07T20:12:58.450Z,5.49
2023-05-07T20:15:46.924Z,5.45
2023-05-07T20:18:32.628Z,5.55
2023-05-07T20:21:17.696Z,5.63
2023-05-07T20:24:03.227Z,5.70
2023-05-07T20:26:48.542Z,5.74
2023-05-07T20:29:34.228Z,5.78
2023-05-07T20:32:20.470Z,5.80
2023-05-07T20:35:07.179Z,5.87
2023-05-07T20:37:52.621Z,5.83
2023-05-07T20:40:38.016Z,5.86
2023-05-07T20:43:23.705Z,5.77
2023-05-07T20:46:09.334Z,5.70
2023-05-07T20:48:55.124Z,5.59
2023-05-07T20:51:40.405Z,5.53
2023-05-07T20:54:28.098Z,5.44
2023-05-07T20:57:14.469Z,5.39
2023-05-07T20:59:59.880Z,5.34
2023-05-07T21:02:45.639Z,5.20
2023-05-07T21:05:32.532Z,5.26
2023-05-07T21:08:18.183Z,5.29
2023-05-07T21:11:03.240Z,5.20
2023-05-07T21:13:48.648Z,5.12
2023-05-07T21:16:34.012Z,5.08
2023-05-07T21:19:19.336Z,5.05
2023-05-07T21:22:05.319Z,4.94
2023-05-07T21:24:50.531Z,5.00
2023-05-07T21:27:35.827Z,5.12
2023-05-07T21:30:21.201Z,5.17
2023-05-07T21:33:08.377Z,5.33
2023-05-07T21:35:54.180Z,5.38
2023-05-07T21:38:40.389Z,5.32
2023-05-07T21:41:26.185Z,5.24
2023-05-07T21:44:11.660Z,5.27
2023-05-07T21:46:57.051Z,5.29
2023-05-07T21:49:42.521Z,5.22
2023-05-07T21:52:27.811Z,5.20
2023-05-07T21:55:13.289Z,5.28
2023-05-07T21:58:05.574Z,5.23
2023-05-07T22:00:51.499Z,5.22
2023-05-07T22:03:36.826Z,5.11
2023-05-07T22:06:22.590Z,5.03
2023-05-07T22:09:07.973Z,4.96
2023-05-07T22:11:52.998Z,5.00
2023-05-07T22:14:38.252Z,5.12
2023-05-07T22:17:24.558Z,5.24
2023-05-07T22:20:10.775Z,5.36
2023-05-07T22:22:56.900Z,5.38
2023-05-07T22:25:42.196Z,5.29
2023-05-07T22:28:27.418Z,5.19
2023-05-07T22:31:12.616Z,5.16
2023-05-07T22:33:58.015Z,5.17
2023-05-07T22:36:43.276Z,5.31
2023-05-07T22:39:31.220Z,5.29
2023-05-07T22:42:16.648Z,5.33
2023-05-07T22:45:01.929Z,5.46
2023-05-07T22:47:47.280Z,5.45
2023-05-07T22:50:37.783Z,5.33
2023-05-07T22:53:23.700Z,5.31
2023-05-07T22:56:09.975Z,5.22
2023-05-07T22:58:55.125Z,5.24
2023-05-07T23:01:40.714Z,5.23
2023-05-07T23:04:26.810Z,5.04
2023-05-07T23:07:12.112Z,4.97
2023-05-07T23:09:57.555Z,4.94
2023-05-07T23:12:43.901Z,5.06
2023-05-07T23:15:29.160Z,5.07
2023-05-07T23:18:14.514Z,5.06
2023-05-07T23:20:59.897Z,5.16
2023-05-07T23:23:45.157Z,5.19
2023-05-07T23:26:30.429Z,5.19
2023-05-07T23:29:15.691Z,5.19
2023-05-07T23:32:01.273Z,5.17
2023-05-07T23:34:50.288Z,5.04
2023-05-07T23:37:35.771Z,4.88
2023-05-07T23:40:20.858Z,4.81
2023-05-07T23:43:06.003Z,4.89
2023-05-07T23:45:51.751Z,4.93
2023-05-07T23:48:37.202Z,4.97
2023-05-07T23:51:22.540Z,4.99
2023-05-07T23:54:07.911Z,4.97
2023-05-07T23:56:53.190Z,4.93
2023-05-07T23:59:38.490Z,4.99
